sensor_id;sensor_type;location;lat;lon;timestamp;P1;durP1;ratioP1;P2;durP2;ratioP2
62479;SDS011;48526;48.846;2.322;2023-02-28T00:00:06;16.00;;;15.75;;
62479;SDS011;48526;48.846;2.322;2023-02-28T00:02:35;17.25;;;17.25;;
62479;SDS011;48526;48.846;2.322;2023-02-28T00:05:01;21.50;;;18.25;;
62479;SDS011;48526;48.846;2.322;2023-02-28T00:07:28;18.75;;;12.50;;
62479;SDS011;48526;48.846;2.322;2023-02-28T00:09:54;18.75;;;16.50;;
62479;SDS011;48526;48.846;2.322;2023-02-28T00:12:19;20.25;;;16.75;;
62479;SDS011;48526;48.846;2.322;2023-02-28T00:14:45;23.50;;;17.75;;
62479;SDS011;48526;48.846;2.322;2023-02-28T00:17:10;21.75;;;16.75;;
62479;SDS011;48526;48.846;2.322;2023-02-28T00:19:35;22.00;;;16.25;;
62479;SDS011;48526;48.846;2.322;2023-02-28T00:22:01;21.25;;;16.50;;
62479;SDS011;48526;48.846;2.322;2023-02-28T00:24:26;19.50;;;14.75;;
62479;SDS011;48526;48.846;2.322;2023-02-28T00:26:52;20.75;;;19.25;;
62479;SDS011;48526;48.846;2.322;2023-02-28T00:29:17;15.00;;;13.00;;
62479;SDS011;48526;48.846;2.322;2023-02-28T00:31:43;19.00;;;17.25;;
62479;SDS011;48526;48.846;2.322;2023-02-28T00:34:08;15.25;;;14.50;;
62479;SDS011;48526;48.846;2.322;2023-02-28T00:36:33;21.50;;;16.75;;
62479;SDS011;48526;48.846;2.322;2023-02-28T00:38:59;22.50;;;19.00;;
62479;SDS011;48526;48.846;2.322;2023-02-28T00:41:24;20.75;;;18.25;;
62479;SDS011;48526;48.846;2.322;2023-02-28T00:43:50;21.50;;;15.00;;
62479;SDS011;48526;48.846;2.322;2023-02-28T00:46:15;14.25;;;14.00;;
62479;SDS011;48526;48.846;2.322;2023-02-28T00:48:40;12.00;;;10.75;;
62479;SDS011;48526;48.846;2.322;2023-02-28T00:51:06;23.00;;;15.25;;
62479;SDS011;48526;48.846;2.322;2023-02-28T00:53:31;16.00;;;12.50;;
62479;SDS011;48526;48.846;2.322;2023-02-28T00:56:00;16.00;;;15.00;;
62479;SDS011;48526;48.846;2.322;2023-02-28T00:58:25;19.25;;;15.75;;
62479;SDS011;48526;48.846;2.322;2023-02-28T01:00:51;14.00;;;12.00;;
62479;SDS011;48526;48.846;2.322;2023-02-28T01:03:18;17.25;;;12.75;;
62479;SDS011;48526;48.846;2.322;2023-02-28T01:05:44;19.00;;;15.75;;
62479;SDS011;48526;48.846;2.322;2023-02-28T01:08:10;18.25;;;14.75;;
62479;SDS011;48526;48.846;2.322;2023-02-28T01:10:35;21.25;;;18.75;;
62479;SDS011;48526;48.846;2.322;2023-02-28T01:13:01;18.50;;;17.75;;
62479;SDS011;48526;48.846;2.322;2023-02-28T01:15:28;18.75;;;13.25;;
62479;SDS011;48526;48.846;2.322;2023-02-28T01:17:53;17.75;;;17.75;;
62479;SDS011;48526;48.846;2.322;2023-02-28T01:20:19;17.75;;;11.75;;
62479;SDS011;48526;48.846;2.322;2023-02-28T01:22:44;17.25;;;14.50;;
62479;SDS011;48526;48.846;2.322;2023-02-28T01:25:10;18.00;;;18.00;;
62479;SDS011;48526;48.846;2.322;2023-02-28T01:27:35;16.50;;;15.00;;
62479;SDS011;48526;48.846;2.322;2023-02-28T01:30:01;12.67;;;10.00;;
62479;SDS011;48526;48.846;2.322;2023-02-28T01:32:27;15.75;;;15.75;;
62479;SDS011;48526;48.846;2.322;2023-02-28T01:34:52;16.25;;;13.00;;
62479;SDS011;48526;48.846;2.322;2023-02-28T01:37:18;13.75;;;9.75;;
62479;SDS011;48526;48.846;2.322;2023-02-28T01:39:43;10.00;;;6.00;;
62479;SDS011;48526;48.846;2.322;2023-02-28T01:42:09;12.50;;;12.00;;
62479;SDS011;48526;48.846;2.322;2023-02-28T01:47:19;16.25;;;13.00;;
62479;SDS011;48526;48.846;2.322;2023-02-28T01:49:45;15.00;;;10.50;;
62479;SDS011;48526;48.846;2.322;2023-02-28T01:52:10;17.25;;;12.75;;
62479;SDS011;48526;48.846;2.322;2023-02-28T01:54:43;18.00;;;14.00;;
62479;SDS011;48526;48.846;2.322;2023-02-28T01:57:14;18.00;;;15.00;;
62479;SDS011;48526;48.846;2.322;2023-02-28T01:59:45;15.25;;;12.00;;
62479;SDS011;48526;48.846;2.322;2023-02-28T02:02:15;17.50;;;15.50;;
62479;SDS011;48526;48.846;2.322;2023-02-28T02:04:46;21.00;;;15.25;;
62479;SDS011;48526;48.846;2.322;2023-02-28T02:07:26;16.50;;;15.00;;
62479;SDS011;48526;48.846;2.322;2023-02-28T02:10:10;15.75;;;12.25;;
62479;SDS011;48526;48.846;2.322;2023-02-28T02:15:46;13.00;;;12.00;;
62479;SDS011;48526;48.846;2.322;2023-02-28T02:23:56;15.75;;;12.00;;
62479;SDS011;48526;48.846;2.322;2023-02-28T02:32:30;14.25;;;12.00;;
62479;SDS011;48526;48.846;2.322;2023-02-28T02:38:33;18.75;;;14.50;;
62479;SDS011;48526;48.846;2.322;2023-02-28T02:43:31;12.50;;;12.25;;
62479;SDS011;48526;48.846;2.322;2023-02-28T02:46:15;11.50;;;8.50;;
62479;SDS011;48526;48.846;2.322;2023-02-28T02:48:44;15.00;;;15.00;;
62479;SDS011;48526;48.846;2.322;2023-02-28T02:51:12;12.25;;;10.00;;
62479;SDS011;48526;48.846;2.322;2023-02-28T02:54:22;18.00;;;13.50;;
62479;SDS011;48526;48.846;2.322;2023-02-28T02:56:43;9.50;;;9.50;;
62479;SDS011;48526;48.846;2.322;2023-02-28T02:59:11;16.25;;;11.75;;
62479;SDS011;48526;48.846;2.322;2023-02-28T03:01:38;14.00;;;11.50;;
62479;SDS011;48526;48.846;2.322;2023-02-28T03:04:06;11.50;;;9.50;;
62479;SDS011;48526;48.846;2.322;2023-02-28T03:06:34;15.00;;;12.00;;
62479;SDS011;48526;48.846;2.322;2023-02-28T03:09:00;10.00;;;9.50;;
62479;SDS011;48526;48.846;2.322;2023-02-28T03:11:26;16.25;;;13.75;;
62479;SDS011;48526;48.846;2.322;2023-02-28T03:16:38;8.50;;;4.00;;
62479;SDS011;48526;48.846;2.322;2023-02-28T03:30:32;14.00;;;10.25;;
62479;SDS011;48526;48.846;2.322;2023-02-28T03:33:07;17.75;;;12.75;;
62479;SDS011;48526;48.846;2.322;2023-02-28T03:35:48;15.00;;;12.00;;
62479;SDS011;48526;48.846;2.322;2023-02-28T03:38:31;7.00;;;7.00;;
62479;SDS011;48526;48.846;2.322;2023-02-28T03:41:06;10.75;;;9.25;;
62479;SDS011;48526;48.846;2.322;2023-02-28T03:43:43;18.00;;;12.00;;
62479;SDS011;48526;48.846;2.322;2023-02-28T03:46:13;11.75;;;11.75;;
62479;SDS011;48526;48.846;2.322;2023-02-28T03:51:12;13.50;;;11.75;;
62479;SDS011;48526;48.846;2.322;2023-02-28T03:53:42;15.25;;;12.75;;
62479;SDS011;48526;48.846;2.322;2023-02-28T03:56:18;9.75;;;9.50;;
62479;SDS011;48526;48.846;2.322;2023-02-28T04:01:47;11.00;;;9.50;;
62479;SDS011;48526;48.846;2.322;2023-02-28T04:04:13;11.50;;;10.00;;
62479;SDS011;48526;48.846;2.322;2023-02-28T04:06:40;10.50;;;8.00;;
62479;SDS011;48526;48.846;2.322;2023-02-28T04:09:06;16.50;;;13.25;;
62479;SDS011;48526;48.846;2.322;2023-02-28T04:11:34;9.50;;;9.50;;
62479;SDS011;48526;48.846;2.322;2023-02-28T04:14:02;9.50;;;9.50;;
62479;SDS011;48526;48.846;2.322;2023-02-28T04:16:28;10.00;;;10.00;;
62479;SDS011;48526;48.846;2.322;2023-02-28T04:18:54;10.25;;;10.25;;
62479;SDS011;48526;48.846;2.322;2023-02-28T04:21:27;9.75;;;9.00;;
62479;SDS011;48526;48.846;2.322;2023-02-28T04:23:59;10.00;;;10.00;;
62479;SDS011;48526;48.846;2.322;2023-02-28T04:26:32;14.00;;;11.00;;
62479;SDS011;48526;48.846;2.322;2023-02-28T04:28:59;12.75;;;11.25;;
62479;SDS011;48526;48.846;2.322;2023-02-28T04:31:25;9.00;;;9.00;;
62479;SDS011;48526;48.846;2.322;2023-02-28T04:33:50;9.25;;;9.25;;
62479;SDS011;48526;48.846;2.322;2023-02-28T04:36:16;12.75;;;11.00;;
62479;SDS011;48526;48.846;2.322;2023-02-28T04:38:45;12.00;;;8.00;;
62479;SDS011;48526;48.846;2.322;2023-02-28T04:41:11;16.25;;;13.50;;
62479;SDS011;48526;48.846;2.322;2023-02-28T04:43:37;12.00;;;9.75;;
62479;SDS011;48526;48.846;2.322;2023-02-28T04:46:04;9.50;;;8.75;;
62479;SDS011;48526;48.846;2.322;2023-02-28T04:48:30;15.00;;;11.25;;
62479;SDS011;48526;48.846;2.322;2023-02-28T04:51:01;13.50;;;12.50;;
62479;SDS011;48526;48.846;2.322;2023-02-28T04:53:30;15.00;;;12.00;;
62479;SDS011;48526;48.846;2.322;2023-02-28T04:55:56;16.00;;;9.25;;
62479;SDS011;48526;48.846;2.322;2023-02-28T04:58:22;8.00;;;5.00;;
62479;SDS011;48526;48.846;2.322;2023-02-28T05:00:48;18.00;;;12.00;;
62479;SDS011;48526;48.846;2.322;2023-02-28T05:03:14;15.25;;;12.00;;
62479;SDS011;48526;48.846;2.322;2023-02-28T05:05:40;12.50;;;12.00;;
62479;SDS011;48526;48.846;2.322;2023-02-28T05:08:05;9.00;;;9.00;;
62479;SDS011;48526;48.846;2.322;2023-02-28T05:10:31;14.00;;;11.00;;
62479;SDS011;48526;48.846;2.322;2023-02-28T05:12:57;14.00;;;10.50;;
62479;SDS011;48526;48.846;2.322;2023-02-28T05:15:22;12.50;;;9.75;;
62479;SDS011;48526;48.846;2.322;2023-02-28T05:17:48;15.25;;;11.00;;
62479;SDS011;48526;48.846;2.322;2023-02-28T05:20:14;12.50;;;12.50;;
62479;SDS011;48526;48.846;2.322;2023-02-28T05:22:39;14.00;;;12.50;;
62479;SDS011;48526;48.846;2.322;2023-02-28T05:25:05;12.25;;;10.50;;
62479;SDS011;48526;48.846;2.322;2023-02-28T05:27:31;19.00;;;12.25;;
62479;SDS011;48526;48.846;2.322;2023-02-28T05:29:57;15.25;;;11.75;;
62479;SDS011;48526;48.846;2.322;2023-02-28T05:32:23;11.75;;;9.75;;
62479;SDS011;48526;48.846;2.322;2023-02-28T05:34:49;12.75;;;11.50;;
62479;SDS011;48526;48.846;2.322;2023-02-28T05:37:14;13.00;;;12.00;;
62479;SDS011;48526;48.846;2.322;2023-02-28T05:39:40;15.00;;;12.50;;
62479;SDS011;48526;48.846;2.322;2023-02-28T05:42:06;15.75;;;13.00;;
62479;SDS011;48526;48.846;2.322;2023-02-28T05:44:32;14.00;;;9.75;;
62479;SDS011;48526;48.846;2.322;2023-02-28T05:46:57;15.25;;;11.50;;
62479;SDS011;48526;48.846;2.322;2023-02-28T05:49:23;12.75;;;10.75;;
62479;SDS011;48526;48.846;2.322;2023-02-28T05:51:48;14.00;;;10.00;;
62479;SDS011;48526;48.846;2.322;2023-02-28T05:54:14;12.00;;;10.00;;
62479;SDS011;48526;48.846;2.322;2023-02-28T05:56:40;15.00;;;13.00;;
62479;SDS011;48526;48.846;2.322;2023-02-28T05:59:08;9.50;;;7.00;;
62479;SDS011;48526;48.846;2.322;2023-02-28T06:01:40;18.75;;;14.00;;
62479;SDS011;48526;48.846;2.322;2023-02-28T06:04:10;12.75;;;5.00;;
62479;SDS011;48526;48.846;2.322;2023-02-28T06:06:35;24.00;;;18.00;;
62479;SDS011;48526;48.846;2.322;2023-02-28T06:09:02;21.00;;;20.00;;
62479;SDS011;48526;48.846;2.322;2023-02-28T06:11:30;19.00;;;17.50;;
62479;SDS011;48526;48.846;2.322;2023-02-28T06:13:56;21.25;;;16.50;;
62479;SDS011;48526;48.846;2.322;2023-02-28T06:16:24;25.50;;;19.50;;
62479;SDS011;48526;48.846;2.322;2023-02-28T06:18:50;28.50;;;19.00;;
62479;SDS011;48526;48.846;2.322;2023-02-28T06:21:17;23.50;;;17.50;;
62479;SDS011;48526;48.846;2.322;2023-02-28T06:23:42;23.25;;;19.00;;
62479;SDS011;48526;48.846;2.322;2023-02-28T06:26:08;27.25;;;15.50;;
62479;SDS011;48526;48.846;2.322;2023-02-28T06:28:34;25.25;;;22.00;;
62479;SDS011;48526;48.846;2.322;2023-02-28T06:31:04;24.75;;;21.00;;
62479;SDS011;48526;48.846;2.322;2023-02-28T06:33:31;27.00;;;20.50;;
62479;SDS011;48526;48.846;2.322;2023-02-28T06:35:56;22.50;;;22.00;;
62479;SDS011;48526;48.846;2.322;2023-02-28T06:38:22;20.50;;;18.00;;
62479;SDS011;48526;48.846;2.322;2023-02-28T06:40:54;20.50;;;14.50;;
62479;SDS011;48526;48.846;2.322;2023-02-28T06:43:21;24.00;;;21.00;;
62479;SDS011;48526;48.846;2.322;2023-02-28T06:45:46;21.50;;;18.00;;
62479;SDS011;48526;48.846;2.322;2023-02-28T06:48:12;32.00;;;25.50;;
62479;SDS011;48526;48.846;2.322;2023-02-28T06:50:38;34.00;;;27.00;;
62479;SDS011;48526;48.846;2.322;2023-02-28T06:53:03;35.00;;;24.75;;
62479;SDS011;48526;48.846;2.322;2023-02-28T06:55:28;25.25;;;22.50;;
62479;SDS011;48526;48.846;2.322;2023-02-28T06:57:54;29.00;;;21.00;;
62479;SDS011;48526;48.846;2.322;2023-02-28T07:00:20;24.75;;;24.00;;
62479;SDS011;48526;48.846;2.322;2023-02-28T07:02:46;32.00;;;27.00;;
62479;SDS011;48526;48.846;2.322;2023-02-28T07:05:12;25.50;;;21.75;;
62479;SDS011;48526;48.846;2.322;2023-02-28T07:07:38;26.75;;;22.25;;
62479;SDS011;48526;48.846;2.322;2023-02-28T07:10:05;27.50;;;25.00;;
62479;SDS011;48526;48.846;2.322;2023-02-28T07:12:32;31.50;;;24.25;;
62479;SDS011;48526;48.846;2.322;2023-02-28T07:14:57;32.75;;;28.00;;
62479;SDS011;48526;48.846;2.322;2023-02-28T07:17:23;29.00;;;26.00;;
62479;SDS011;48526;48.846;2.322;2023-02-28T07:19:48;37.75;;;32.50;;
62479;SDS011;48526;48.846;2.322;2023-02-28T07:22:13;28.25;;;26.75;;
62479;SDS011;48526;48.846;2.322;2023-02-28T07:24:39;31.75;;;29.25;;
62479;SDS011;48526;48.846;2.322;2023-02-28T07:27:04;38.67;;;27.67;;
62479;SDS011;48526;48.846;2.322;2023-02-28T07:29:30;36.75;;;30.00;;
62479;SDS011;48526;48.846;2.322;2023-02-28T07:31:55;38.75;;;31.75;;
62479;SDS011;48526;48.846;2.322;2023-02-28T07:34:21;32.25;;;27.75;;
62479;SDS011;48526;48.846;2.322;2023-02-28T07:36:47;37.75;;;30.00;;
62479;SDS011;48526;48.846;2.322;2023-02-28T07:39:12;24.75;;;24.50;;
62479;SDS011;48526;48.846;2.322;2023-02-28T07:41:38;33.00;;;26.00;;
62479;SDS011;48526;48.846;2.322;2023-02-28T07:44:09;27.50;;;23.50;;
62479;SDS011;48526;48.846;2.322;2023-02-28T07:46:35;31.25;;;26.00;;
62479;SDS011;48526;48.846;2.322;2023-02-28T07:49:01;38.25;;;28.50;;
62479;SDS011;48526;48.846;2.322;2023-02-28T07:51:28;25.00;;;22.50;;
62479;SDS011;48526;48.846;2.322;2023-02-28T07:53:53;32.75;;;26.25;;
62479;SDS011;48526;48.846;2.322;2023-02-28T07:56:19;25.00;;;24.00;;
62479;SDS011;48526;48.846;2.322;2023-02-28T07:58:45;39.25;;;29.75;;
62479;SDS011;48526;48.846;2.322;2023-02-28T08:01:10;32.33;;;27.00;;
62479;SDS011;48526;48.846;2.322;2023-02-28T08:03:36;39.25;;;31.25;;
62479;SDS011;48526;48.846;2.322;2023-02-28T08:06:06;29.75;;;25.00;;
62479;SDS011;48526;48.846;2.322;2023-02-28T08:08:32;33.00;;;24.25;;
62479;SDS011;48526;48.846;2.322;2023-02-28T08:11:01;29.50;;;26.25;;
62479;SDS011;48526;48.846;2.322;2023-02-28T08:13:28;27.75;;;25.50;;
62479;SDS011;48526;48.846;2.322;2023-02-28T08:15:54;30.25;;;28.00;;
62479;SDS011;48526;48.846;2.322;2023-02-28T08:18:20;41.25;;;33.75;;
62479;SDS011;48526;48.846;2.322;2023-02-28T08:20:45;27.00;;;25.00;;
62479;SDS011;48526;48.846;2.322;2023-02-28T08:23:11;20.75;;;15.75;;
62479;SDS011;48526;48.846;2.322;2023-02-28T08:25:36;40.33;;;32.33;;
62479;SDS011;48526;48.846;2.322;2023-02-28T08:28:02;35.50;;;27.75;;
62479;SDS011;48526;48.846;2.322;2023-02-28T08:30:27;31.75;;;26.00;;
62479;SDS011;48526;48.846;2.322;2023-02-28T08:32:53;31.75;;;25.00;;
62479;SDS011;48526;48.846;2.322;2023-02-28T08:35:19;32.50;;;29.00;;
62479;SDS011;48526;48.846;2.322;2023-02-28T08:37:44;30.00;;;26.33;;
62479;SDS011;48526;48.846;2.322;2023-02-28T08:40:12;40.50;;;31.00;;
62479;SDS011;48526;48.846;2.322;2023-02-28T08:42:43;32.00;;;26.50;;
62479;SDS011;48526;48.846;2.322;2023-02-28T08:45:10;26.50;;;25.00;;
62479;SDS011;48526;48.846;2.322;2023-02-28T08:47:36;39.25;;;26.50;;
62479;SDS011;48526;48.846;2.322;2023-02-28T08:50:01;35.67;;;29.00;;
62479;SDS011;48526;48.846;2.322;2023-02-28T08:52:26;23.00;;;19.25;;
62479;SDS011;48526;48.846;2.322;2023-02-28T08:54:52;30.25;;;29.00;;
62479;SDS011;48526;48.846;2.322;2023-02-28T08:57:17;37.00;;;30.75;;
62479;SDS011;48526;48.846;2.322;2023-02-28T08:59:45;32.00;;;26.50;;
62479;SDS011;48526;48.846;2.322;2023-02-28T09:02:14;40.00;;;33.00;;
62479;SDS011;48526;48.846;2.322;2023-02-28T09:04:40;33.25;;;26.75;;
62479;SDS011;48526;48.846;2.322;2023-02-28T09:07:06;33.00;;;28.00;;
62479;SDS011;48526;48.846;2.322;2023-02-28T09:09:31;34.75;;;30.75;;
62479;SDS011;48526;48.846;2.322;2023-02-28T09:11:57;40.25;;;30.00;;
62479;SDS011;48526;48.846;2.322;2023-02-28T09:14:22;37.50;;;31.75;;
62479;SDS011;48526;48.846;2.322;2023-02-28T09:16:48;30.00;;;22.75;;
62479;SDS011;48526;48.846;2.322;2023-02-28T09:19:14;28.00;;;24.25;;
62479;SDS011;48526;48.846;2.322;2023-02-28T09:21:39;27.00;;;25.25;;
62479;SDS011;48526;48.846;2.322;2023-02-28T09:24:05;24.75;;;22.50;;
62479;SDS011;48526;48.846;2.322;2023-02-28T09:26:31;28.50;;;25.00;;
62479;SDS011;48526;48.846;2.322;2023-02-28T09:28:56;30.50;;;22.25;;
62479;SDS011;48526;48.846;2.322;2023-02-28T09:31:25;26.75;;;22.50;;
62479;SDS011;48526;48.846;2.322;2023-02-28T09:33:53;23.00;;;21.75;;
62479;SDS011;48526;48.846;2.322;2023-02-28T09:36:20;34.75;;;25.75;;
62479;SDS011;48526;48.846;2.322;2023-02-28T09:38:46;23.50;;;21.75;;
62479;SDS011;48526;48.846;2.322;2023-02-28T09:41:16;25.50;;;18.50;;
62479;SDS011;48526;48.846;2.322;2023-02-28T09:43:44;30.75;;;24.50;;
62479;SDS011;48526;48.846;2.322;2023-02-28T09:49:23;25.75;;;19.75;;
62479;SDS011;48526;48.846;2.322;2023-02-28T09:51:50;28.25;;;23.50;;
62479;SDS011;48526;48.846;2.322;2023-02-28T09:54:18;26.75;;;24.00;;
62479;SDS011;48526;48.846;2.322;2023-02-28T09:56:51;28.75;;;22.00;;
62479;SDS011;48526;48.846;2.322;2023-02-28T10:07:30;28.25;;;23.00;;
62479;SDS011;48526;48.846;2.322;2023-02-28T10:10:06;23.75;;;20.25;;
62479;SDS011;48526;48.846;2.322;2023-02-28T10:12:41;25.25;;;24.00;;
62479;SDS011;48526;48.846;2.322;2023-02-28T10:15:14;25.25;;;20.00;;
62479;SDS011;48526;48.846;2.322;2023-02-28T10:17:41;19.75;;;19.50;;
62479;SDS011;48526;48.846;2.322;2023-02-28T10:20:12;18.00;;;17.75;;
62479;SDS011;48526;48.846;2.322;2023-02-28T10:25:22;21.50;;;17.75;;
62479;SDS011;48526;48.846;2.322;2023-02-28T10:27:49;18.25;;;18.25;;
62479;SDS011;48526;48.846;2.322;2023-02-28T10:30:15;13.75;;;13.00;;
62479;SDS011;48526;48.846;2.322;2023-02-28T10:32:43;25.25;;;23.25;;
62479;SDS011;48526;48.846;2.322;2023-02-28T10:37:40;20.00;;;17.00;;
62479;SDS011;48526;48.846;2.322;2023-02-28T10:40:11;19.25;;;16.25;;
62479;SDS011;48526;48.846;2.322;2023-02-28T10:45:28;22.25;;;21.00;;
62479;SDS011;48526;48.846;2.322;2023-02-28T10:48:22;19.25;;;19.00;;
62479;SDS011;48526;48.846;2.322;2023-02-28T10:50:58;24.25;;;17.00;;
62479;SDS011;48526;48.846;2.322;2023-02-28T10:53:28;16.75;;;15.00;;
62479;SDS011;48526;48.846;2.322;2023-02-28T10:56:14;13.00;;;12.50;;
62479;SDS011;48526;48.846;2.322;2023-02-28T11:01:10;18.33;;;15.33;;
62479;SDS011;48526;48.846;2.322;2023-02-28T11:03:38;19.25;;;14.00;;
62479;SDS011;48526;48.846;2.322;2023-02-28T11:06:08;15.25;;;14.00;;
62479;SDS011;48526;48.846;2.322;2023-02-28T11:08:49;15.00;;;12.50;;
62479;SDS011;48526;48.846;2.322;2023-02-28T11:11:17;16.25;;;15.00;;
62479;SDS011;48526;48.846;2.322;2023-02-28T11:13:44;13.50;;;13.50;;
62479;SDS011;48526;48.846;2.322;2023-02-28T11:16:11;12.00;;;11.25;;
62479;SDS011;48526;48.846;2.322;2023-02-28T11:21:22;11.25;;;11.25;;
62479;SDS011;48526;48.846;2.322;2023-02-28T11:23:51;10.75;;;8.25;;
62479;SDS011;48526;48.846;2.322;2023-02-28T11:26:40;15.25;;;14.75;;
62479;SDS011;48526;48.846;2.322;2023-02-28T11:29:12;17.00;;;16.00;;
62479;SDS011;48526;48.846;2.322;2023-02-28T11:31:41;8.75;;;7.75;;
62479;SDS011;48526;48.846;2.322;2023-02-28T11:34:25;12.00;;;12.00;;
62479;SDS011;48526;48.846;2.322;2023-02-28T11:36:53;17.50;;;15.00;;
62479;SDS011;48526;48.846;2.322;2023-02-28T11:39:19;15.50;;;15.50;;
62479;SDS011;48526;48.846;2.322;2023-02-28T11:50:13;18.75;;;17.25;;
62479;SDS011;48526;48.846;2.322;2023-02-28T11:52:52;12.25;;;12.25;;
62479;SDS011;48526;48.846;2.322;2023-02-28T11:55:32;11.75;;;11.75;;
62479;SDS011;48526;48.846;2.322;2023-02-28T12:00:33;12.25;;;11.00;;
62479;SDS011;48526;48.846;2.322;2023-02-28T12:03:20;9.00;;;8.00;;
62479;SDS011;48526;48.846;2.322;2023-02-28T12:05:59;12.75;;;12.75;;
62479;SDS011;48526;48.846;2.322;2023-02-28T12:11:45;14.25;;;12.25;;
62479;SDS011;48526;48.846;2.322;2023-02-28T12:17:29;12.75;;;12.50;;
62479;SDS011;48526;48.846;2.322;2023-02-28T12:20:05;16.50;;;13.25;;
62479;SDS011;48526;48.846;2.322;2023-02-28T12:28:17;13.75;;;11.50;;
62479;SDS011;48526;48.846;2.322;2023-02-28T12:30:50;13.25;;;12.00;;
62479;SDS011;48526;48.846;2.322;2023-02-28T12:33:24;14.50;;;12.00;;
62479;SDS011;48526;48.846;2.322;2023-02-28T12:35:54;14.00;;;13.25;;
62479;SDS011;48526;48.846;2.322;2023-02-28T12:38:22;14.75;;;11.25;;
62479;SDS011;48526;48.846;2.322;2023-02-28T12:40:53;11.75;;;11.25;;
62479;SDS011;48526;48.846;2.322;2023-02-28T12:43:22;14.75;;;10.25;;
62479;SDS011;48526;48.846;2.322;2023-02-28T12:45:56;15.50;;;14.25;;
62479;SDS011;48526;48.846;2.322;2023-02-28T12:48:37;11.25;;;9.00;;
62479;SDS011;48526;48.846;2.322;2023-02-28T12:51:07;18.50;;;13.00;;
62479;SDS011;48526;48.846;2.322;2023-02-28T12:53:57;13.50;;;11.25;;
62479;SDS011;48526;48.846;2.322;2023-02-28T12:59:10;13.50;;;13.50;;
62479;SDS011;48526;48.846;2.322;2023-02-28T13:01:46;13.50;;;12.00;;
62479;SDS011;48526;48.846;2.322;2023-02-28T13:09:53;11.00;;;11.00;;
62479;SDS011;48526;48.846;2.322;2023-02-28T13:12:20;10.00;;;9.25;;
62479;SDS011;48526;48.846;2.322;2023-02-28T13:14:47;7.50;;;5.75;;
62479;SDS011;48526;48.846;2.322;2023-02-28T13:17:21;14.50;;;11.25;;
62479;SDS011;48526;48.846;2.322;2023-02-28T13:24:52;10.25;;;10.25;;
62479;SDS011;48526;48.846;2.322;2023-02-28T13:29:49;14.00;;;13.50;;
62479;SDS011;48526;48.846;2.322;2023-02-28T13:32:18;12.25;;;10.00;;
62479;SDS011;48526;48.846;2.322;2023-02-28T13:47:39;15.25;;;15.00;;
62479;SDS011;48526;48.846;2.322;2023-02-28T13:59:12;15.00;;;15.00;;
62479;SDS011;48526;48.846;2.322;2023-02-28T14:06:55;13.50;;;11.25;;
62479;SDS011;48526;48.846;2.322;2023-02-28T14:09:31;14.00;;;11.50;;
62479;SDS011;48526;48.846;2.322;2023-02-28T14:15:04;8.75;;;8.75;;
62479;SDS011;48526;48.846;2.322;2023-02-28T14:17:53;12.50;;;9.00;;
62479;SDS011;48526;48.846;2.322;2023-02-28T14:20:20;11.25;;;9.00;;
62479;SDS011;48526;48.846;2.322;2023-02-28T14:22:51;10.25;;;10.25;;
62479;SDS011;48526;48.846;2.322;2023-02-28T14:25:23;11.50;;;11.50;;
62479;SDS011;48526;48.846;2.322;2023-02-28T14:30:58;11.25;;;9.25;;
62479;SDS011;48526;48.846;2.322;2023-02-28T14:36:52;16.50;;;12.00;;
62479;SDS011;48526;48.846;2.322;2023-02-28T14:39:20;10.25;;;10.25;;
62479;SDS011;48526;48.846;2.322;2023-02-28T14:41:47;11.25;;;9.00;;
62479;SDS011;48526;48.846;2.322;2023-02-28T14:46:41;12.50;;;12.25;;
62479;SDS011;48526;48.846;2.322;2023-02-28T14:49:18;9.00;;;9.00;;
62479;SDS011;48526;48.846;2.322;2023-02-28T14:51:44;12.25;;;11.00;;
62479;SDS011;48526;48.846;2.322;2023-02-28T14:54:13;16.50;;;12.00;;
62479;SDS011;48526;48.846;2.322;2023-02-28T14:56:40;13.50;;;10.50;;
62479;SDS011;48526;48.846;2.322;2023-02-28T14:59:17;14.75;;;13.50;;
62479;SDS011;48526;48.846;2.322;2023-02-28T15:01:49;11.50;;;9.50;;
62479;SDS011;48526;48.846;2.322;2023-02-28T15:04:18;12.25;;;10.50;;
62479;SDS011;48526;48.846;2.322;2023-02-28T15:07:06;16.50;;;14.25;;
62479;SDS011;48526;48.846;2.322;2023-02-28T15:09:32;12.50;;;10.25;;
62479;SDS011;48526;48.846;2.322;2023-02-28T15:11:58;12.50;;;11.00;;
62479;SDS011;48526;48.846;2.322;2023-02-28T15:14:23;14.50;;;9.75;;
62479;SDS011;48526;48.846;2.322;2023-02-28T15:16:57;18.00;;;11.00;;
62479;SDS011;48526;48.846;2.322;2023-02-28T15:19:28;12.25;;;11.00;;
62479;SDS011;48526;48.846;2.322;2023-02-28T15:22:07;13.75;;;9.25;;
62479;SDS011;48526;48.846;2.322;2023-02-28T15:24:38;10.00;;;8.00;;
62479;SDS011;48526;48.846;2.322;2023-02-28T15:27:12;15.75;;;12.50;;
62479;SDS011;48526;48.846;2.322;2023-02-28T15:29:45;13.00;;;12.25;;
62479;SDS011;48526;48.846;2.322;2023-02-28T15:32:26;11.00;;;9.25;;
62479;SDS011;48526;48.846;2.322;2023-02-28T15:34:53;9.50;;;9.00;;
62479;SDS011;48526;48.846;2.322;2023-02-28T15:48:20;15.00;;;14.00;;
62479;SDS011;48526;48.846;2.322;2023-02-28T15:50:50;12.75;;;11.50;;
62479;SDS011;48526;48.846;2.322;2023-02-28T15:53:17;12.00;;;10.00;;
62479;SDS011;48526;48.846;2.322;2023-02-28T15:55:51;14.00;;;11.25;;
62479;SDS011;48526;48.846;2.322;2023-02-28T15:58:18;13.75;;;9.00;;
62479;SDS011;48526;48.846;2.322;2023-02-28T16:00:44;13.00;;;13.00;;
62479;SDS011;48526;48.846;2.322;2023-02-28T16:03:24;6.00;;;5.00;;
62479;SDS011;48526;48.846;2.322;2023-02-28T16:08:41;6.00;;;6.00;;
62479;SDS011;48526;48.846;2.322;2023-02-28T16:11:08;8.50;;;8.00;;
62479;SDS011;48526;48.846;2.322;2023-02-28T16:13:34;7.25;;;7.25;;
62479;SDS011;48526;48.846;2.322;2023-02-28T16:16:00;11.00;;;9.25;;
62479;SDS011;48526;48.846;2.322;2023-02-28T16:18:26;8.50;;;7.75;;
62479;SDS011;48526;48.846;2.322;2023-02-28T16:20:52;10.75;;;7.50;;
62479;SDS011;48526;48.846;2.322;2023-02-28T16:23:17;6.25;;;6.25;;
62479;SDS011;48526;48.846;2.322;2023-02-28T16:25:43;12.25;;;9.50;;
62479;SDS011;48526;48.846;2.322;2023-02-28T16:28:12;14.75;;;11.00;;
62479;SDS011;48526;48.846;2.322;2023-02-28T16:30:43;10.00;;;10.00;;
62479;SDS011;48526;48.846;2.322;2023-02-28T16:33:08;11.50;;;9.25;;
62479;SDS011;48526;48.846;2.322;2023-02-28T16:35:34;15.00;;;13.00;;
62479;SDS011;48526;48.846;2.322;2023-02-28T16:37:59;8.67;;;8.00;;
62479;SDS011;48526;48.846;2.322;2023-02-28T16:40:25;11.50;;;11.00;;
62479;SDS011;48526;48.846;2.322;2023-02-28T16:42:53;11.50;;;11.50;;
62479;SDS011;48526;48.846;2.322;2023-02-28T16:45:23;16.75;;;12.00;;
62479;SDS011;48526;48.846;2.322;2023-02-28T16:47:50;20.25;;;10.50;;
62479;SDS011;48526;48.846;2.322;2023-02-28T16:50:16;15.25;;;12.00;;
62479;SDS011;48526;48.846;2.322;2023-02-28T16:52:43;12.25;;;9.75;;
62479;SDS011;48526;48.846;2.322;2023-02-28T16:55:09;14.50;;;10.75;;
62479;SDS011;48526;48.846;2.322;2023-02-28T16:57:35;12.00;;;6.75;;
62479;SDS011;48526;48.846;2.322;2023-02-28T17:00:00;10.25;;;8.50;;
62479;SDS011;48526;48.846;2.322;2023-02-28T17:02:26;10.50;;;9.50;;
62479;SDS011;48526;48.846;2.322;2023-02-28T17:04:52;10.50;;;10.50;;
62479;SDS011;48526;48.846;2.322;2023-02-28T17:07:17;10.25;;;8.50;;
62479;SDS011;48526;48.846;2.322;2023-02-28T17:09:43;12.25;;;9.00;;
62479;SDS011;48526;48.846;2.322;2023-02-28T17:12:08;11.75;;;8.25;;